Time;durP1;ratioP1;P1;durP2;ratioP2;P2;SDS_P1;SDS_P2;PMS_P1;PMS_P2;Temp;Humidity;BMP_temperature;BMP_pressure;BME280_temperature;BME280_humidity;BME280_pressure;Samples;Min_cycle;Max_cycle;Signal;HPM_P1;HPM_P2
2022/05/23 00:00:51;;;;;;;1999.90;999.90;;;19.00;99.90;;;;;;4919859;29;20025;-75
2022/05/23 00:03:18;;;;;;;1999.90;999.90;;;19.00;99.90;;;;;;4920009;29;20716;-76
2022/05/23 00:05:44;;;;;;;1999.90;999.90;;;19.00;99.90;;;;;;4918357;29;20064;-75
2022/05/23 00:08:09;;;;;;;1999.90;999.90;;;19.00;99.90;;;;;;4918467;29;20466;-83
2022/05/23 00:10:35;;;;;;;1999.90;999.90;;;19.00;99.90;;;;;;4918348;29;20153;-75
2022/05/23 00:13:01;;;;;;;1999.90;999.90;;;19.00;99.90;;;;;;4925144;29;20040;-75
2022/05/23 00:15:30;;;;;;;1999.90;999.90;;;19.00;99.90;;;;;;4919775;29;20036;-84
2022/05/23 00:17:56;;;;;;;1999.90;999.90;;;18.90;99.90;;;;;;4919618;29;20028;-83
2022/05/23 00:20:23;;;;;;;1999.90;999.90;;;18.90;99.90;;;;;;4915015;29;20072;-84
2022/05/23 00:22:49;;;;;;;1999.90;999.90;;;18.90;99.90;;;;;;4917551;29;20036;-76
2022/05/23 00:25:15;;;;;;;1999.90;999.90;;;18.90;99.90;;;;;;4919484;29;20028;-75
2022/05/23 00:27:43;;;;;;;1999.90;999.90;;;18.90;99.90;;;;;;4919212;29;20389;-83
2022/05/23 00:30:28;;;;;;;1999.90;999.90;;;18.90;99.90;;;;;;4917310;29;20024;-80
2022/05/23 00:35:41;;;;;;;1999.90;999.90;;;18.90;99.90;;;;;;4907459;29;20091;-83
2022/05/23 00:38:07;;;;;;;1999.90;999.90;;;19.00;99.90;;;;;;4926695;29;20032;-74
2022/05/23 00:43:13;;;;;;;1999.90;999.90;;;19.00;99.90;;;;;;4922516;29;20083;-85
2022/05/23 00:43:43;;;;;;;1999.90;999.90;;;19.00;99.90;;;;;;4918539;29;20135;-79
2022/05/23 00:46:11;;;;;;;1999.90;999.90;;;19.00;99.90;;;;;;4921522;29;20115;-83
2022/05/23 00:48:40;;;;;;;1999.90;999.90;;;19.00;99.90;;;;;;4919048;29;20452;-74
2022/05/23 00:51:16;;;;;;;1999.90;999.90;;;19.00;99.90;;;;;;4918750;29;20472;-77
2022/05/23 00:53:55;;;;;;;1999.90;999.90;;;19.00;99.90;;;;;;4918589;29;20436;-84
2022/05/23 00:56:26;;;;;;;1999.90;999.90;;;19.00;99.90;;;;;;4917905;29;20080;-83
2022/05/23 00:58:56;;;;;;;1999.90;999.90;;;19.10;99.90;;;;;;4917852;29;20028;-74
2022/05/23 01:01:25;;;;;;;1999.90;999.90;;;19.10;99.90;;;;;;4929388;29;20447;-79
2022/05/23 01:03:51;;;;;;;1999.90;999.90;;;19.00;99.90;;;;;;4918723;29;20024;-83
2022/05/23 01:06:17;;;;;;;1999.90;999.90;;;19.00;99.90;;;;;;4917223;29;20031;-83
2022/05/23 01:08:46;;;;;;;1999.90;999.90;;;19.00;99.90;;;;;;4918838;29;20028;-75
2022/05/23 01:11:12;;;;;;;1999.90;999.90;;;19.00;99.90;;;;;;4918250;29;20105;-84
2022/05/23 01:13:38;;;;;;;1999.90;999.90;;;19.10;99.90;;;;;;4923576;29;20051;-83
2022/05/23 01:16:04;;;;;;;1999.90;999.90;;;19.00;99.90;;;;;;4917082;29;20024;-75
2022/05/23 01:18:31;;;;;;;1999.90;999.90;;;19.00;99.90;;;;;;4917248;29;20039;-83
2022/05/23 01:21:00;;;;;;;1999.90;999.90;;;19.00;99.90;;;;;;4918210;29;20024;-75
2022/05/23 01:23:39;;;;;;;1999.90;999.90;;;19.00;99.90;;;;;;4918500;29;20051;-82
2022/05/23 01:26:05;;;;;;;1999.90;999.90;;;19.00;99.90;;;;;;4917397;29;20507;-75
2022/05/23 01:28:33;;;;;;;1999.90;999.90;;;19.00;99.90;;;;;;4918305;29;20055;-76
2022/05/23 01:30:59;;;;;;;1999.90;999.90;;;19.00;99.90;;;;;;4917550;29;20024;-81
2022/05/23 01:33:27;;;;;;;1999.90;999.90;;;18.90;99.90;;;;;;4907694;29;20547;-83
2022/05/23 01:35:53;;;;;;;1999.90;999.90;;;18.90;99.90;;;;;;4916040;29;20518;-84
2022/05/23 01:38:19;;;;;;;1999.90;999.90;;;18.90;99.90;;;;;;4926576;29;20024;-74
2022/05/23 01:40:44;;;;;;;1999.90;999.90;;;18.80;99.90;;;;;;4920111;29;20024;-83
2022/05/23 01:43:11;;;;;;;1999.90;999.90;;;18.80;99.90;;;;;;4917990;29;20147;-76
2022/05/23 01:45:37;;;;;;;1999.90;999.90;;;18.80;99.90;;;;;;4920571;29;20023;-83
2022/05/23 01:48:04;;;;;;;1999.90;999.90;;;18.70;99.90;;;;;;4929248;29;20036;-84
2022/05/23 01:50:30;;;;;;;1999.90;999.90;;;18.70;99.90;;;;;;4918410;29;20031;-85
2022/05/23 01:52:58;;;;;;;1999.90;999.90;;;18.70;99.90;;;;;;4918476;29;20035;-74
2022/05/23 01:55:24;;;;;;;1999.90;999.90;;;18.70;99.90;;;;;;4916730;29;20105;-83
2022/05/23 01:57:50;;;;;;;1999.90;999.90;;;18.70;99.90;;;;;;4917485;29;20107;-84
2022/05/23 02:03:01;;;;;;;1999.90;999.90;;;18.70;99.90;;;;;;4921932;29;20088;-75
2022/05/23 02:05:27;;;;;;;1999.90;999.90;;;18.70;99.90;;;;;;4913099;29;20433;-82
2022/05/23 02:07:54;;;;;;;1999.90;999.90;;;18.70;99.90;;;;;;4911002;29;20028;-84
2022/05/23 02:10:21;;;;;;;1999.90;999.90;;;18.70;99.90;;;;;;4917476;29;20575;-73
2022/05/23 02:12:47;;;;;;;1999.90;999.90;;;18.60;99.90;;;;;;4923538;29;20023;-80
2022/05/23 02:15:13;;;;;;;1999.90;999.90;;;18.70;99.90;;;;;;4917268;29;20519;-73
2022/05/23 02:17:39;;;;;;;1999.90;999.90;;;18.60;99.90;;;;;;4917610;29;20024;-74
2022/05/23 02:20:06;;;;;;;1999.90;999.90;;;18.60;99.90;;;;;;4917127;29;20032;-84
2022/05/23 02:22:33;;;;;;;1999.90;999.90;;;18.60;99.90;;;;;;4916158;29;20032;-75
2022/05/23 02:24:59;;;;;;;1999.90;999.90;;;18.60;99.90;;;;;;4917242;29;20526;-75
2022/05/23 02:27:24;;;;;;;1999.90;999.90;;;18.60;99.90;;;;;;4916085;29;20024;-84
2022/05/23 02:29:50;;;;;;;1999.90;999.90;;;18.60;99.90;;;;;;4917250;29;20522;-74
2022/05/23 02:32:16;;;;;;;1999.90;999.90;;;18.60;99.90;;;;;;4916735;29;20028;-79
2022/05/23 02:34:42;;;;;;;1999.90;999.90;;;18.50;99.90;;;;;;4915396;29;20039;-83
2022/05/23 02:37:09;;;;;;;1999.90;999.90;;;18.60;99.90;;;;;;4904291;29;20428;-84
2022/05/23 02:39:37;;;;;;;1999.90;999.90;;;18.60;99.90;;;;;;4926774;29;20028;-75
2022/05/23 02:42:04;;;;;;;1999.90;999.90;;;18.50;99.90;;;;;;4915203;29;20479;-75
2022/05/23 02:44:29;;;;;;;1999.90;999.90;;;18.50;99.90;;;;;;4912564;29;20085;-83
2022/05/23 02:46:55;;;;;;;1999.90;999.90;;;18.50;99.90;;;;;;4921601;29;20027;-84
2022/05/23 02:49:21;;;;;;;1999.90;999.90;;;18.50;99.90;;;;;;4927631;29;20028;-84
2022/05/23 02:51:49;;;;;;;1999.90;999.90;;;18.50;99.90;;;;;;4904407;29;20460;-76
2022/05/23 02:54:15;;;;;;;1999.90;999.90;;;18.50;99.90;;;;;;4916856;29;20028;-84
2022/05/23 02:56:40;;;;;;;1999.90;999.90;;;18.50;99.90;;;;;;4916203;29;20056;-75
2022/05/23 02:59:06;;;;;;;1999.90;999.90;;;18.50;99.90;;;;;;4915679;29;20024;-75
2022/05/23 03:01:32;;;;;;;1999.90;999.90;;;18.40;99.90;;;;;;4928931;29;20031;-85
2022/05/23 03:03:58;;;;;;;1999.90;999.90;;;18.40;99.90;;;;;;4916613;29;20036;-84
2022/05/23 03:06:23;;;;;;;1999.90;999.90;;;18.40;99.90;;;;;;4916655;29;20020;-75
2022/05/23 03:08:49;;;;;;;1999.90;999.90;;;18.40;99.90;;;;;;4916866;29;20083;-79
2022/05/23 03:11:15;;;;;;;1999.90;999.90;;;18.40;99.90;;;;;;4915466;29;20502;-80
2022/05/23 03:13:41;;;;;;;1999.90;999.90;;;18.50;99.90;;;;;;4922872;29;20032;-81
2022/05/23 03:16:12;;;;;;;1999.90;999.90;;;18.40;99.90;;;;;;4916654;29;20028;-84
2022/05/23 03:18:38;;;;;;;1999.90;999.90;;;18.40;99.90;;;;;;4919853;29;20487;-75
2022/05/23 03:21:07;;;;;;;1999.90;999.90;;;18.40;99.90;;;;;;4918806;29;20087;-84
2022/05/23 03:29:09;;;;;;;1999.90;999.90;;;18.30;99.90;;;;;;4920525;29;20050;-83
2022/05/23 03:31:35;;;;;;;1999.90;999.90;;;18.30;99.90;;;;;;4920575;29;20064;-75
2022/05/23 03:34:01;;;;;;;1999.90;999.90;;;18.20;99.90;;;;;;4920485;29;20024;-75
2022/05/23 03:36:26;;;;;;;1999.90;999.90;;;18.20;99.90;;;;;;4914169;29;20036;-76
2022/05/23 03:38:52;;;;;;;1999.90;999.90;;;18.20;99.90;;;;;;4930246;29;20028;-84
2022/05/23 03:41:18;;;;;;;1999.90;999.90;;;18.10;99.90;;;;;;4920318;29;20147;-85
2022/05/23 03:43:43;;;;;;;1999.90;999.90;;;18.10;99.90;;;;;;4920075;29;20028;-83
2022/05/23 03:46:12;;;;;;;1999.90;999.90;;;18.10;99.90;;;;;;4923621;29;20054;-83
2022/05/23 03:48:38;;;;;;;1999.90;999.90;;;18.10;99.90;;;;;;4935752;29;20016;-83
2022/05/23 03:51:05;;;;;;;1999.90;999.90;;;18.10;99.90;;;;;;4915455;29;20393;-75
2022/05/23 03:53:31;;;;;;;1999.90;999.90;;;18.00;99.90;;;;;;4916908;29;20028;-74
2022/05/23 03:55:57;;;;;;;1999.90;999.90;;;18.00;99.90;;;;;;4918232;29;20056;-74
2022/05/23 03:58:28;;;;;;;1999.90;999.90;;;18.00;99.90;;;;;;4919352;29;20039;-75
2022/05/23 04:01:06;;;;;;;1999.90;999.90;;;18.00;99.90;;;;;;4915449;29;20116;-84
2022/05/23 04:03:32;;;;;;;1999.90;999.90;;;18.00;99.90;;;;;;4918583;29;20028;-75
2022/05/23 04:06:00;;;;;;;1999.90;999.90;;;18.00;99.90;;;;;;4918898;29;20039;-84
2022/05/23 04:08:25;;;;;;;1999.90;999.90;;;18.00;99.90;;;;;;4919737;29;20021;-75
2022/05/23 04:10:51;;;;;;;1999.90;999.90;;;18.00;99.90;;;;;;4918317;29;20043;-75
2022/05/23 04:13:17;;;;;;;1999.90;999.90;;;18.10;99.90;;;;;;4925842;29;20047;-75
2022/05/23 04:15:43;;;;;;;1999.90;999.90;;;18.10;99.90;;;;;;4919551;29;20072;-84
2022/05/23 04:18:09;;;;;;;1999.90;999.90;;;18.10;99.90;;;;;;4918240;29;20024;-75
2022/05/23 04:20:34;;;;;;;1999.90;999.90;;;18.10;99.90;;;;;;4919075;29;20423;-75
2022/05/23 04:23:00;;;;;;;1999.90;999.90;;;18.10;99.90;;;;;;4919537;29;20031;-76
2022/05/23 04:25:28;;;;;;;1999.90;999.90;;;18.20;99.90;;;;;;4918241;29;20480;-84
2022/05/23 04:27:54;;;;;;;1999.90;999.90;;;18.20;99.90;;;;;;4919410;29;20075;-86
2022/05/23 04:30:20;;;;;;;1999.90;999.90;;;18.20;99.90;;;;;;4918775;29;20448;-75
2022/05/23 04:35:33;;;;;;;1999.90;999.90;;;18.30;99.90;;;;;;4919009;29;20563;-76
2022/05/23 04:37:58;;;;;;;1999.90;999.90;;;18.30;99.90;;;;;;4914715;29;20024;-85
2022/05/23 04:40:26;;;;;;;1999.90;999.90;;;18.20;99.90;;;;;;4914759;29;20456;-85
2022/05/23 04:42:52;;;;;;;1999.90;999.90;;;18.30;99.90;;;;;;4919282;29;20020;-84
2022/05/23 04:45:18;;;;;;;1999.90;999.90;;;18.30;99.90;;;;;;4917969;29;20036;-75
2022/05/23 04:50:28;;;;;;;1999.90;999.90;;;18.40;99.90;;;;;;4918780;29;20067;-86
2022/05/23 04:52:56;;;;;;;1999.90;999.90;;;18.40;99.90;;;;;;4919033;29;20075;-85
2022/05/23 04:55:22;;;;;;;1999.90;999.90;;;18.40;99.90;;;;;;4918829;29;20097;-76
2022/05/23 04:57:48;;;;;;;1999.90;999.90;;;18.30;99.90;;;;;;4918108;29;20076;-76
2022/05/23 05:00:18;;;;;;;1999.90;999.90;;;18.30;99.90;;;;;;4922080;29;20105;-76
2022/05/23 05:02:44;;;;;;;1999.90;999.90;;;18.30;99.90;;;;;;4926025;29;20048;-76
2022/05/23 05:05:11;;;;;;;1999.90;999.90;;;18.30;99.90;;;;;;4917437;29;20062;-85
2022/05/23 05:07:36;;;;;;;1999.90;999.90;;;18.20;99.90;;;;;;4913865;29;20028;-76
2022/05/23 05:10:03;;;;;;;1999.90;999.90;;;18.20;99.90;;;;;;4916932;29;20041;-87
2022/05/23 05:12:29;;;;;;;1999.90;999.90;;;18.10;99.90;;;;;;4923733;29;20031;-75
2022/05/23 05:14:54;;;;;;;1999.90;999.90;;;17.90;99.90;;;;;;4918721;29;20067;-86
2022/05/23 05:17:21;;;;;;;1999.90;999.90;;;17.70;99.90;;;;;;4917721;29;20040;-85
2022/05/23 05:19:47;;;;;;;1999.90;999.90;;;17.50;99.90;;;;;;4918427;29;20541;-77
2022/05/23 05:22:13;;;;;;;1999.90;999.90;;;17.50;99.90;;;;;;4906263;29;20036;-87
2022/05/23 05:24:38;;;;;;;1999.90;999.90;;;17.60;99.90;;;;;;4905894;29;20024;-86
2022/05/23 05:27:04;;;;;;;1999.90;999.90;;;17.60;99.90;;;;;;4918444;29;20517;-85
2022/05/23 05:29:30;;;;;;;1999.90;999.90;;;17.50;99.90;;;;;;4926146;29;20029;-84
2022/05/23 05:32:04;;;;;;;1999.90;999.90;;;17.50;99.90;;;;;;4909729;29;20046;-75
2022/05/23 05:34:41;;;;;;;1999.90;999.90;;;17.60;99.90;;;;;;4911499;29;20031;-76
2022/05/23 05:37:13;;;;;;;1999.90;999.90;;;17.60;99.90;;;;;;4914851;29;20131;-76
2022/05/23 05:39:40;;;;;;;1999.90;999.90;;;17.50;99.90;;;;;;4918165;29;20442;-77
2022/05/23 05:42:11;;;;;;;1999.90;999.90;;;17.40;99.90;;;;;;4917079;29;20088;-80
2022/05/23 05:44:42;;;;;;;1999.90;999.90;;;17.40;99.90;;;;;;4918031;29;20036;-75
2022/05/23 05:47:11;;;;;;;1999.90;999.90;;;17.40;99.90;;;;;;4924231;29;20479;-76
2022/05/23 05:49:44;;;;;;;1999.90;999.90;;;17.30;99.90;;;;;;4916344;29;20047;-87
2022/05/23 05:52:13;;;;;;;1999.90;999.90;;;17.30;99.90;;;;;;4917280;29;20046;-86
2022/05/23 05:54:40;;;;;;;1999.90;999.90;;;17.20;99.90;;;;;;4918102;29;20487;-88
2022/05/23 05:57:08;;;;;;;1999.90;999.90;;;17.10;99.90;;;;;;4916158;29;20737;-84
2022/05/23 05:59:35;;;;;;;1999.90;999.90;;;17.10;99.90;;;;;;4917213;29;20024;-78
2022/05/23 06:02:01;;;;;;;1999.90;999.90;;;17.20;99.90;;;;;;4915874;29;20140;-86
2022/05/23 06:04:27;;;;;;;1999.90;999.90;;;17.20;99.90;;;;;;4907312;29;20076;-86
2022/05/23 06:12:21;;;;;;;1999.90;999.90;;;17.20;99.90;;;;;;4915717;29;20055;-76
2022/05/23 06:14:47;;;;;;;1999.90;999.90;;;17.20;99.90;;;;;;4915719;29;20039;-85
2022/05/23 06:17:12;;;;;;;1999.90;999.90;;;17.10;99.90;;;;;;4915570;29;20036;-86
2022/05/23 06:19:44;;;;;;;1999.90;999.90;;;17.20;99.90;;;;;;4916531;29;20080;-78
2022/05/23 06:22:11;;;;;;;1999.90;999.90;;;17.10;99.90;;;;;;4914480;29;20049;-78
2022/05/23 06:24:37;;;;;;;1999.90;999.90;;;17.20;99.90;;;;;;4918997;29;20414;-86
2022/05/23 06:27:05;;;;;;;1999.90;999.90;;;17.10;99.90;;;;;;4916231;29;20043;-86
2022/05/23 06:29:32;;;;;;;1999.90;999.90;;;17.10;99.90;;;;;;4916831;29;20031;-88
2022/05/23 06:31:57;;;;;;;1999.90;999.90;;;17.10;99.90;;;;;;4916164;29;20054;-86
2022/05/23 06:34:23;;;;;;;1999.90;999.90;;;17.10;99.90;;;;;;4924608;29;20440;-76
2022/05/23 06:36:49;;;;;;;1999.90;999.90;;;17.10;99.90;;;;;;4916009;29;20036;-87
2022/05/23 06:39:14;;;;;;;1999.90;999.90;;;17.10;99.90;;;;;;4923592;29;20408;-88
2022/05/23 06:41:40;;;;;;;1999.90;999.90;;;17.20;99.90;;;;;;4913258;29;20032;-83
2022/05/23 06:44:06;;;;;;;1999.90;999.90;;;17.10;99.90;;;;;;4915710;29;20068;-79
2022/05/23 06:46:32;;;;;;;1999.90;999.90;;;17.20;99.90;;;;;;4916152;29;20107;-84
2022/05/23 06:48:59;;;;;;;1999.90;999.90;;;17.20;99.90;;;;;;4915918;29;20024;-87
2022/05/23 06:51:25;;;;;;;1999.90;999.90;;;17.20;99.90;;;;;;4915829;29;20043;-85
2022/05/23 06:53:52;;;;;;;1999.90;999.90;;;17.00;99.90;;;;;;4915921;29;20434;-79
2022/05/23 06:56:18;;;;;;;1999.90;999.90;;;17.10;99.90;;;;;;4915108;29;20067;-79
2022/05/23 06:58:44;;;;;;;1999.90;999.90;;;17.00;99.90;;;;;;4914669;29;20484;-85
2022/05/23 07:01:10;;;;;;;1999.90;999.90;;;16.90;99.90;;;;;;4914478;29;20032;-80
2022/05/23 07:03:35;;;;;;;1999.90;999.90;;;16.90;99.90;;;;;;4909282;29;20634;-77
2022/05/23 07:14:20;;;;;;;1999.90;999.90;;;16.90;99.90;;;;;;4909845;29;20055;-82
2022/05/23 07:16:47;;;;;;;1999.90;999.90;;;17.00;99.90;;;;;;4917051;29;20055;-84
2022/05/23 07:19:12;;;;;;;1999.90;999.90;;;17.10;99.90;;;;;;4914256;29;20529;-79
2022/05/23 07:21:38;;;;;;;1999.90;999.90;;;17.10;99.90;;;;;;4914786;29;20107;-81
2022/05/23 07:24:14;;;;;;;1999.90;999.90;;;17.30;99.90;;;;;;4914629;29;20087;-80
2022/05/23 07:26:40;;;;;;;1999.90;999.90;;;17.20;99.90;;;;;;4905940;29;20963;-83
2022/05/23 07:29:08;;;;;;;1999.90;999.90;;;17.30;99.90;;;;;;4907239;29;20119;-80
2022/05/23 07:31:34;;;;;;;1999.90;999.90;;;17.40;99.90;;;;;;4914131;29;20491;-81
2022/05/23 07:33:59;;;;;;;1999.90;999.90;;;17.50;99.90;;;;;;4913485;29;20039;-80
2022/05/23 07:36:25;;;;;;;1999.90;999.90;;;17.40;99.90;;;;;;4911311;29;20138;-82
2022/05/23 07:38:51;;;;;;;1999.90;999.90;;;17.50;99.90;;;;;;4914003;29;20035;-78
2022/05/23 07:41:17;;;;;;;1999.90;999.90;;;17.60;99.90;;;;;;4913231;29;20123;-78
2022/05/23 07:43:42;;;;;;;1999.90;999.90;;;17.90;99.90;;;;;;4907385;29;20035;-79
2022/05/23 07:46:13;;;;;;;1999.90;999.90;;;17.70;99.90;;;;;;4917229;29;20028;-78
2022/05/23 07:48:49;;;;;;;1999.90;999.90;;;17.70;99.90;;;;;;4915365;29;20502;-79
2022/05/23 07:51:17;;;;;;;1999.90;999.90;;;17.80;99.90;;;;;;4906633;29;20491;-78
2022/05/23 08:01:56;;;;;;;1999.90;999.90;;;17.90;99.90;;;;;;4913751;29;20461;-77
2022/05/23 08:04:22;;;;;;;1999.90;999.90;;;18.10;99.90;;;;;;4914184;29;20123;-81
2022/05/23 08:06:48;;;;;;;1999.90;999.90;;;18.10;99.90;;;;;;4919922;29;20036;-76
2022/05/23 08:09:16;;;;;;;1999.90;999.90;;;18.00;99.90;;;;;;4926201;29;20075;-78
2022/05/23 08:11:44;;;;;;;1999.90;999.90;;;18.10;99.90;;;;;;4913251;29;20036;-83
2022/05/23 08:14:11;;;;;;;1999.90;999.90;;;18.10;99.90;;;;;;4916100;29;20028;-80
2022/05/23 08:16:37;;;;;;;1999.90;999.90;;;18.50;99.90;;;;;;4903492;29;20028;-79
2022/05/23 08:19:05;;;;;;;1999.90;999.90;;;18.20;99.90;;;;;;4917196;29;20055;-80
2022/05/23 08:21:31;;;;;;;1999.90;999.90;;;18.10;99.90;;;;;;4916954;29;20112;-78
2022/05/23 08:23:57;;;;;;;1999.90;999.90;;;17.90;99.90;;;;;;4915567;29;20032;-79
2022/05/23 08:26:24;;;;;;;1999.90;999.90;;;17.80;99.90;;;;;;4917468;29;20028;-79
2022/05/23 08:29:00;;;;;;;1999.90;999.90;;;17.80;99.90;;;;;;4917149;29;20046;-82
2022/05/23 08:31:26;;;;;;;1999.90;999.90;;;17.90;99.90;;;;;;4915244;29;20102;-81
2022/05/23 08:34:02;;;;;;;1999.90;999.90;;;18.10;99.90;;;;;;4916540;29;20032;-82
2022/05/23 08:36:27;;;;;;;1999.90;999.90;;;18.00;99.90;;;;;;4915663;29;20032;-78
2022/05/23 08:38:53;;;;;;;1999.90;999.90;;;17.90;99.90;;;;;;4916151;29;20080;-78
2022/05/23 08:41:26;;;;;;;1999.90;999.90;;;17.90;99.90;;;;;;4916325;29;20035;-80
2022/05/23 08:44:23;;;;;;;1999.90;999.90;;;19.10;99.90;;;;;;4913279;29;20036;-79
2022/05/23 08:46:57;;;;;;;1999.90;999.90;;;20.40;99.90;;;;;;4914373;29;20048;-79
2022/05/23 08:49:46;;;;;;;1999.90;999.90;;;21.80;99.90;;;;;;4914313;29;20033;-78
2022/05/23 08:52:27;;;;;;;1999.90;999.90;;;21.80;99.90;;;;;;4909623;29;20043;-79
2022/05/23 08:55:26;;;;;;;1999.90;999.90;;;22.90;98.20;;;;;;4910475;29;20032;-79
2022/05/23 08:58:13;;;;;;;1999.90;999.90;;;23.70;95.30;;;;;;4907779;29;20044;-79
2022/05/23 09:00:43;;;;;;;1999.90;999.90;;;24.70;94.80;;;;;;4893637;29;20047;-81
2022/05/23 09:03:44;;;;;;;1999.90;999.90;;;26.30;91.80;;;;;;4901023;29;20048;-79
2022/05/23 09:06:13;;;;;;;1999.90;999.90;;;25.90;91.70;;;;;;4896099;29;20054;-79
2022/05/23 09:08:47;;;;;;;1999.90;999.90;;;25.30;91.70;;;;;;4893312;29;20448;-78
2022/05/23 09:11:41;;;;;;;1999.90;999.90;;;23.20;94.00;;;;;;4888131;29;20039;-77
2022/05/23 09:14:09;;;;;;;1999.90;999.90;;;22.00;96.50;;;;;;4897734;29;20168;-77
2022/05/23 09:16:50;;;;;;;1999.90;999.90;;;22.00;97.10;;;;;;4896962;29;20416;-79
2022/05/23 09:19:38;;;;;;;1999.90;999.90;;;22.00;96.90;;;;;;4899930;29;20064;-77
2022/05/23 09:22:18;;;;;;;1999.90;999.90;;;22.50;96.80;;;;;;4895989;29;20692;-77
2022/05/23 09:24:48;;;;;;;1999.90;999.90;;;23.50;96.10;;;;;;4894173;29;20076;-77
2022/05/23 09:27:34;;;;;;;1999.90;999.90;;;24.70;94.30;;;;;;4895528;29;20059;-77
2022/05/23 09:30:01;;;;;;;1999.90;999.90;;;26.20;92.20;;;;;;4902009;29;20032;-73
2022/05/23 09:32:46;;;;;;;1999.90;999.90;;;25.50;91.40;;;;;;4900928;29;20032;-77
2022/05/23 09:35:36;;;;;;;1999.90;999.90;;;25.90;93.00;;;;;;4895660;29;20051;-79
2022/05/23 09:38:25;;;;;;;1999.90;999.90;;;25.90;91.70;;;;;;4899358;29;20061;-78
2022/05/23 09:40:52;;;;;;;1999.90;999.90;;;25.00;92.90;;;;;;4896986;29;20563;-77
2022/05/23 09:49:19;;;;;;;1999.90;999.90;;;25.60;91.50;;;;;;4894795;29;20039;-80
2022/05/23 09:51:55;;;;;;;1999.90;999.90;;;27.30;91.10;;;;;;4897222;29;20037;-81
2022/05/23 09:54:27;;;;;;;1999.90;999.90;;;26.10;91.40;;;;;;4899268;29;20028;-79
2022/05/23 09:56:54;;;;;;;1999.90;999.90;;;26.80;90.50;;;;;;4896593;29;20461;-79
2022/05/23 09:59:28;;;;;;;1999.90;999.90;;;26.60;90.40;;;;;;4890431;29;20033;-79
2022/05/23 10:01:54;;;;;;;1999.90;999.90;;;24.20;92.60;;;;;;4905779;29;20037;-77
2022/05/23 10:04:26;;;;;;;1999.90;999.90;;;23.20;93.90;;;;;;4910045;29;20025;-78
2022/05/23 10:06:52;;;;;;;1999.90;999.90;;;22.70;94.40;;;;;;4896836;29;20116;-80
2022/05/23 10:09:37;;;;;;;1999.90;999.90;;;23.00;93.60;;;;;;4897503;29;20116;-75
2022/05/23 10:12:09;;;;;;;1999.90;999.90;;;24.60;91.80;;;;;;4896305;29;20047;-80
2022/05/23 10:14:48;;;;;;;1999.90;999.90;;;24.70;92.20;;;;;;4899339;29;20455;-78
2022/05/23 10:17:41;;;;;;;1999.90;999.90;;;25.30;91.20;;;;;;4899225;29;20452;-77
2022/05/23 10:20:27;;;;;;;1999.90;999.90;;;27.10;90.20;;;;;;4887648;29;20060;-78
2022/05/23 10:22:56;;;;;;;1999.90;999.90;;;27.80;89.30;;;;;;4885957;29;20037;-78
2022/05/23 10:25:23;;;;;;;1999.90;999.90;;;26.50;91.30;;;;;;4890666;29;20024;-78
2022/05/23 10:27:53;;;;;;;1999.90;999.90;;;27.10;91.50;;;;;;4894192;29;20033;-83
2022/05/23 10:30:22;;;;;;;1999.90;999.90;;;25.90;92.20;;;;;;4885626;29;20036;-78
2022/05/23 10:32:52;;;;;;;1999.90;999.90;;;24.50;93.30;;;;;;4893493;29;20570;-82
2022/05/23 10:35:24;;;;;;;1999.90;999.90;;;22.90;95.10;;;;;;4895987;29;20036;-81
2022/05/23 10:37:53;;;;;;;1999.90;999.90;;;21.30;97.80;;;;;;4895377;29;20468;-76
2022/05/23 10:43:21;;;;;;;1999.90;999.90;;;20.60;99.90;;;;;;4894030;29;20043;-77
2022/05/23 10:45:54;;;;;;;1999.90;999.90;;;20.30;99.90;;;;;;4909630;29;20035;-82
2022/05/23 10:48:44;;;;;;;1999.90;999.90;;;20.40;99.90;;;;;;4884295;29;20037;-78
2022/05/23 10:51:54;;;;;;;1999.90;999.90;;;20.60;99.90;;;;;;4895107;29;20468;-79
2022/05/23 10:54:41;;;;;;;1999.90;999.90;;;21.00;99.90;;;;;;4858000;29;20184;-82
2022/05/23 10:57:27;;;;;;;1999.90;999.90;;;21.50;99.90;;;;;;4860998;29;20081;-84
2022/05/23 11:00:12;;;;;;;1999.90;999.90;;;21.20;99.80;;;;;;4844428;29;20065;-79
2022/05/23 11:03:18;;;;;;;1999.90;999.90;;;20.60;99.90;;;;;;4857698;29;20517;-79
2022/05/23 11:06:03;;;;;;;1999.90;999.90;;;19.80;99.90;;;;;;4855654;29;20566;-79
2022/05/23 11:08:51;;;;;;;1999.90;999.90;;;19.30;99.90;;;;;;4851235;29;20041;-77
2022/05/23 11:11:23;;;;;;;1999.90;999.90;;;18.70;99.90;;;;;;4854203;29;20517;-78
2022/05/23 11:14:08;;;;;;;1999.90;999.90;;;19.00;99.90;;;;;;4856788;29;20065;-81
2022/05/23 11:16:39;;;;;;;1999.90;999.90;;;21.80;99.90;;;;;;4848877;29;20136;-79
2022/05/23 11:19:26;;;;;;;1999.90;999.90;;;23.10;99.90;;;;;;4854282;29;20473;-77
2022/05/23 11:22:37;;;;;;;1999.90;999.90;;;23.10;99.90;;;;;;4855037;29;20958;-79
2022/05/23 11:25:21;;;;;;;1999.90;999.90;;;23.30;99.90;;;;;;4855897;29;20037;-79
2022/05/23 11:33:42;;;;;;;1999.90;999.90;;;21.60;99.90;;;;;;4891445;29;20783;-78
2022/05/23 11:36:09;;;;;;;1999.90;999.90;;;20.10;99.90;;;;;;4891011;29;20058;-79
2022/05/23 11:38:44;;;;;;;1999.90;999.90;;;19.90;99.90;;;;;;4896222;29;20025;-77
2022/05/23 11:41:28;;;;;;;1999.90;999.90;;;19.70;99.90;;;;;;4896303;29;20029;-77
2022/05/23 11:43:54;;;;;;;1999.90;999.90;;;19.40;99.90;;;;;;4892819;29;20059;-79
2022/05/23 11:46:26;;;;;;;1999.90;999.90;;;20.00;99.90;;;;;;4899858;29;20021;-77
2022/05/23 11:49:00;;;;;;;1999.90;999.90;;;21.70;99.90;;;;;;4897300;29;20027;-77
2022/05/23 11:51:36;;;;;;;1999.90;999.90;;;22.00;99.90;;;;;;4897857;29;20092;-80
2022/05/23 11:54:35;;;;;;;1999.90;999.90;;;21.60;99.90;;;;;;4898095;29;20128;-79
2022/05/23 11:57:02;;;;;;;1999.90;999.90;;;21.00;99.90;;;;;;4900718;29;20072;-79
2022/05/23 11:59:27;;;;;;;1999.90;999.90;;;20.60;99.90;;;;;;4898157;29;20044;-76
2022/05/23 12:02:08;;;;;;;1999.90;999.90;;;21.00;99.90;;;;;;4897538;29;20477;-80
2022/05/23 12:04:57;;;;;;;1999.90;999.90;;;21.90;99.90;;;;;;4894701;29;20404;-82
2022/05/23 12:07:34;;;;;;;1999.90;999.90;;;22.30;99.90;;;;;;4889549;29;20055;-81
2022/05/23 12:10:22;;;;;;;1999.90;999.90;;;23.00;99.50;;;;;;4900269;29;20131;-82
2022/05/23 12:12:54;;;;;;;1999.90;999.90;;;22.90;99.40;;;;;;4900817;29;20045;-78
2022/05/23 12:15:42;;;;;;;1999.90;999.90;;;22.70;99.10;;;;;;4891675;29;20032;-82
2022/05/23 12:18:11;;;;;;;1999.90;999.90;;;22.70;98.60;;;;;;4910945;29;20579;-82
2022/05/23 12:20:48;;;;;;;1999.90;999.90;;;22.70;98.90;;;;;;4896915;29;20044;-81
2022/05/23 12:23:29;;;;;;;1999.90;999.90;;;22.10;98.80;;;;;;4893035;29;20488;-78
2022/05/23 12:26:29;;;;;;;1999.90;999.90;;;22.20;99.20;;;;;;4918141;29;20445;-80
2022/05/23 12:29:19;;;;;;;1999.90;999.90;;;22.60;98.70;;;;;;4909881;29;20056;-82
2022/05/23 12:32:06;;;;;;;1999.90;999.90;;;22.60;98.90;;;;;;4893162;29;20029;-83
2022/05/23 12:34:39;;;;;;;1999.90;999.90;;;22.90;98.30;;;;;;4897067;29;20048;-80
2022/05/23 12:37:04;;;;;;;1999.90;999.90;;;22.50;98.90;;;;;;4899612;29;20574;-78
2022/05/23 12:39:42;;;;;;;1999.90;999.90;;;22.20;99.10;;;;;;4896718;29;20041;-78
2022/05/23 12:42:26;;;;;;;1999.90;999.90;;;22.10;99.10;;;;;;4893717;29;20040;-79
2022/05/23 12:45:29;;;;;;;1999.90;999.90;;;21.70;99.60;;;;;;4891161;29;20029;-77
2022/05/23 12:48:07;;;;;;;1999.90;999.90;;;21.80;99.80;;;;;;4892767;29;20166;-82
2022/05/23 12:50:53;;;;;;;1999.90;999.90;;;22.00;99.70;;;;;;4899627;29;20032;-79
2022/05/23 12:54:00;;;;;;;1999.90;999.90;;;22.10;99.90;;;;;;4894979;29;20419;-84
2022/05/23 12:56:33;;;;;;;1999.90;999.90;;;21.70;99.90;;;;;;4905714;29;20096;-76
2022/05/23 12:59:21;;;;;;;1999.90;999.90;;;21.90;99.80;;;;;;4929143;29;20102;-76
2022/05/23 13:01:50;;;;;;;1999.90;999.90;;;21.30;99.90;;;;;;4914031;29;20377;-78
2022/05/23 13:04:47;;;;;;;1999.90;999.90;;;20.90;99.90;;;;;;4912370;29;20068;-76
2022/05/23 13:07:16;;;;;;;1999.90;999.90;;;20.80;99.90;;;;;;4886190;29;20280;-82
2022/05/23 13:09:54;;;;;;;1999.90;999.90;;;20.90;99.90;;;;;;4913928;29;20039;-86
2022/05/23 13:12:25;;;;;;;1999.90;999.90;;;21.70;99.90;;;;;;4912143;29;20036;-79